Time;durP1;ratioP1;P1;durP2;ratioP2;P2;SDS_P1;SDS_P2;PMS_P1;PMS_P2;Temp;Humidity;BMP_temperature;BMP_pressure;BME280_temperature;BME280_humidity;BME280_pressure;Samples;Min_cycle;Max_cycle;Signal;HPM_P1;HPM_P2
2022/10/15 00:00:27;;;;;;;;;;;11.70;99.90;;;;;;5092150;28;19924;-95
2022/10/15 00:02:52;;;;;;;;;;;11.70;99.90;;;;;;5107410;28;19928;-94
2022/10/15 00:05:18;;;;;;;;;;;11.70;99.90;;;;;;5087710;28;19966;-94
2022/10/15 00:07:44;;;;;;;;;;;11.70;99.90;;;;;;5104660;28;19970;-94
2022/10/15 00:10:09;;;;;;;;;;;11.70;99.90;;;;;;5108826;28;19923;-94
2022/10/15 00:12:35;;;;;;;;;;;11.70;99.90;;;;;;5091383;28;19931;-95
2022/10/15 00:15:01;;;;;;;;;;;11.70;99.90;;;;;;5091423;28;19969;-96
2022/10/15 00:17:26;;;;;;;;;;;11.70;99.90;;;;;;5087862;28;19928;-95
2022/10/15 00:19:52;;;;;;;;;;;11.70;99.90;;;;;;5091174;28;19928;-94
2022/10/15 00:22:18;;;;;;;;;;;11.70;99.90;;;;;;5103949;28;19984;-96
2022/10/15 00:24:43;;;;;;;;;;;11.70;99.90;;;;;;5089529;28;19930;-95
2022/10/15 00:27:09;;;;;;;;;;;11.60;99.90;;;;;;5099593;28;19987;-96
2022/10/15 00:29:34;;;;;;;;;;;11.70;99.90;;;;;;5107874;28;19968;-94
2022/10/15 00:32:00;;;;;;;;;;;11.60;99.90;;;;;;5088912;28;20019;-94
2022/10/15 00:34:25;;;;;;;;;;;11.60;99.90;;;;;;5108318;28;19924;-93
2022/10/15 00:36:51;;;;;;;;;;;11.60;99.90;;;;;;5106834;28;19946;-94
2022/10/15 00:39:17;;;;;;;;;;;11.60;99.90;;;;;;5108354;28;19923;-94
2022/10/15 00:41:43;;;;;;;;;;;11.60;99.90;;;;;;5089328;28;19991;-94
2022/10/15 00:44:20;;;;;;;;;;;11.60;99.90;;;;;;5109701;28;19931;-93
2022/10/15 00:46:48;;;;;;;;;;;11.60;99.90;;;;;;5110951;28;19946;-93
2022/10/15 00:49:18;;;;;;;;;;;11.60;99.90;;;;;;5110901;28;19955;-92
2022/10/15 00:51:45;;;;;;;;;;;11.60;99.90;;;;;;5094613;28;20298;-93
2022/10/15 00:54:11;;;;;;;;;;;11.60;99.90;;;;;;5088217;28;19928;-93
2022/10/15 00:56:38;;;;;;;;;;;11.60;99.90;;;;;;5110245;28;19966;-94
2022/10/15 00:59:04;;;;;;;;;;;11.60;99.90;;;;;;5093560;28;19924;-94
2022/10/15 01:01:30;;;;;;;;;;;11.60;99.90;;;;;;5088141;28;19928;-93
2022/10/15 01:03:56;;;;;;;;;;;11.60;99.90;;;;;;5109588;28;19924;-94
2022/10/15 01:06:22;;;;;;;;;;;11.60;99.90;;;;;;5095064;28;20408;-93
2022/10/15 01:08:48;;;;;;;;;;;11.60;99.90;;;;;;5078681;28;19924;-94
2022/10/15 01:11:27;;;;;;;;;;;11.60;99.90;;;;;;5096060;28;19979;-93
2022/10/15 01:14:12;;;;;;;;;;;11.60;99.90;;;;;;5107788;28;20030;-94
2022/10/15 01:16:40;;;;;;;;;;;11.60;99.90;;;;;;5083359;28;19930;-92
2022/10/15 01:19:14;;;;;;;;;;;11.60;99.90;;;;;;5107887;28;19950;-95
2022/10/15 01:21:49;;;;;;;;;;;11.60;99.90;;;;;;5091296;28;19946;-95
2022/10/15 01:24:15;;;;;;;;;;;11.60;99.90;;;;;;5090578;28;19931;-95
2022/10/15 01:27:00;;;;;;;;;;;11.60;99.90;;;;;;5107373;28;19924;-94
2022/10/15 01:29:39;;;;;;;;;;;11.50;99.90;;;;;;5107522;28;19987;-93
2022/10/15 01:32:16;;;;;;;;;;;11.60;99.90;;;;;;5084562;28;19945;-94
2022/10/15 01:34:48;;;;;;;;;;;11.60;99.90;;;;;;5107163;28;20002;-95
2022/10/15 01:37:19;;;;;;;;;;;11.60;99.90;;;;;;5089727;28;20406;-94
2022/10/15 01:39:53;;;;;;;;;;;11.60;99.90;;;;;;5090317;28;19990;-94
2022/10/15 01:42:30;;;;;;;;;;;11.60;99.90;;;;;;5106621;28;19999;-93
2022/10/15 01:45:05;;;;;;;;;;;11.60;99.90;;;;;;5100735;28;19924;-93
2022/10/15 01:47:57;;;;;;;;;;;11.60;99.90;;;;;;5100857;28;20008;-94
2022/10/15 01:50:24;;;;;;;;;;;11.50;99.90;;;;;;5101671;28;19928;-95
2022/10/15 01:52:50;;;;;;;;;;;11.60;99.90;;;;;;5089853;28;19924;-93
2022/10/15 01:55:17;;;;;;;;;;;11.60;99.90;;;;;;5072894;28;19931;-93
2022/10/15 01:57:43;;;;;;;;;;;11.60;99.90;;;;;;5106683;28;19988;-93
2022/10/15 02:00:09;;;;;;;;;;;11.60;99.90;;;;;;5083238;28;19930;-95
2022/10/15 02:02:35;;;;;;;;;;;11.60;99.90;;;;;;5071821;28;19990;-93
2022/10/15 02:05:01;;;;;;;;;;;11.60;99.90;;;;;;5106698;28;19946;-93
2022/10/15 02:07:29;;;;;;;;;;;11.60;99.90;;;;;;5072645;28;19924;-93
2022/10/15 02:10:30;;;;;;;;;;;11.60;99.90;;;;;;5087673;28;19924;-95
2022/10/15 02:13:02;;;;;;;;;;;11.60;99.90;;;;;;5027923;28;20422;-95
2022/10/15 02:15:43;;;;;;;;;;;11.60;99.90;;;;;;5088267;28;19975;-93
2022/10/15 02:18:11;;;;;;;;;;;11.50;99.90;;;;;;5087003;28;19931;-94
2022/10/15 02:20:48;;;;;;;;;;;11.50;99.90;;;;;;5089349;28;19924;-94
2022/10/15 02:23:37;;;;;;;;;;;11.50;99.90;;;;;;5105917;28;19924;-93
2022/10/15 02:26:05;;;;;;;;;;;11.50;99.90;;;;;;5060684;28;20174;-93
2022/10/15 02:28:32;;;;;;;;;;;11.50;99.90;;;;;;5088914;28;19945;-96
2022/10/15 02:30:58;;;;;;;;;;;11.50;99.90;;;;;;5088955;28;19924;-94
2022/10/15 02:33:25;;;;;;;;;;;11.50;99.90;;;;;;5088432;28;19930;-94
2022/10/15 02:35:51;;;;;;;;;;;11.50;99.90;;;;;;5105943;28;19924;-93
2022/10/15 02:38:19;;;;;;;;;;;11.50;99.90;;;;;;5088344;28;19924;-94
2022/10/15 02:40:45;;;;;;;;;;;11.50;99.90;;;;;;5088911;28;19931;-93
2022/10/15 02:43:12;;;;;;;;;;;11.50;99.90;;;;;;5070441;28;19930;-95
2022/10/15 02:45:38;;;;;;;;;;;11.50;99.90;;;;;;5084034;28;19931;-95
2022/10/15 02:48:04;;;;;;;;;;;11.50;99.90;;;;;;5071636;28;19924;-93
2022/10/15 02:50:29;;;;;;;;;;;11.50;99.90;;;;;;5105523;28;19987;-94
2022/10/15 02:52:55;;;;;;;;;;;11.50;99.90;;;;;;5105475;28;19923;-94
2022/10/15 02:55:21;;;;;;;;;;;11.50;99.90;;;;;;5084887;28;19924;-94
2022/10/15 02:57:46;;;;;;;;;;;11.50;99.90;;;;;;5083336;28;19924;-95
2022/10/15 03:00:12;;;;;;;;;;;11.50;99.90;;;;;;5088250;28;19928;-94
2022/10/15 03:02:37;;;;;;;;;;;11.50;99.90;;;;;;5068951;28;20365;-93
2022/10/15 03:05:03;;;;;;;;;;;11.50;99.90;;;;;;5104578;28;19924;-94
2022/10/15 03:07:29;;;;;;;;;;;11.50;99.90;;;;;;5104391;28;19938;-94
2022/10/15 03:09:55;;;;;;;;;;;11.50;99.90;;;;;;5102929;28;19992;-96
2022/10/15 03:12:22;;;;;;;;;;;11.50;99.90;;;;;;5104769;28;19985;-93
2022/10/15 03:14:48;;;;;;;;;;;11.50;99.90;;;;;;5088024;28;19924;-94
2022/10/15 03:17:14;;;;;;;;;;;11.50;99.90;;;;;;5105015;28;19963;-95
2022/10/15 03:19:39;;;;;;;;;;;11.50;99.90;;;;;;5088475;28;19924;-96
2022/10/15 03:22:05;;;;;;;;;;;11.50;99.90;;;;;;5102207;28;20985;-93
2022/10/15 03:24:30;;;;;;;;;;;11.50;99.90;;;;;;5105331;28;19945;-94
2022/10/15 03:26:56;;;;;;;;;;;11.50;99.90;;;;;;5085736;28;19924;-93
2022/10/15 03:29:21;;;;;;;;;;;11.50;99.90;;;;;;5102394;28;19979;-94
2022/10/15 03:31:47;;;;;;;;;;;11.50;99.90;;;;;;5085881;28;19955;-95
2022/10/15 03:34:13;;;;;;;;;;;11.50;99.90;;;;;;5073206;28;19930;-94
2022/10/15 03:36:39;;;;;;;;;;;11.50;99.90;;;;;;5099615;28;21049;-93
2022/10/15 03:39:05;;;;;;;;;;;11.40;99.90;;;;;;5088252;28;19971;-94
2022/10/15 03:41:30;;;;;;;;;;;11.40;99.90;;;;;;5084507;28;19927;-93
2022/10/15 03:44:00;;;;;;;;;;;11.40;99.90;;;;;;5100359;28;19999;-93
2022/10/15 03:46:26;;;;;;;;;;;11.40;99.90;;;;;;5090923;28;20102;-94
2022/10/15 03:48:51;;;;;;;;;;;11.40;99.90;;;;;;5066103;28;20073;-93
2022/10/15 03:51:17;;;;;;;;;;;11.40;99.90;;;;;;5081693;28;19923;-95
2022/10/15 03:53:42;;;;;;;;;;;11.40;99.90;;;;;;5105950;28;19935;-94
2022/10/15 03:56:08;;;;;;;;;;;11.40;99.90;;;;;;5088894;28;19950;-94
2022/10/15 03:58:34;;;;;;;;;;;11.40;99.90;;;;;;5072293;28;19924;-94
2022/10/15 04:00:59;;;;;;;;;;;11.40;99.90;;;;;;5105088;28;19927;-93
2022/10/15 04:03:25;;;;;;;;;;;11.50;99.90;;;;;;5105898;28;19949;-93
2022/10/15 04:05:51;;;;;;;;;;;11.50;99.90;;;;;;5089989;28;19924;-94
2022/10/15 04:08:16;;;;;;;;;;;11.50;99.90;;;;;;5092525;28;19973;-94
2022/10/15 04:10:42;;;;;;;;;;;11.50;99.90;;;;;;5075916;28;19923;-93
2022/10/15 04:13:07;;;;;;;;;;;11.50;99.90;;;;;;5087414;28;19925;-95
2022/10/15 04:15:33;;;;;;;;;;;11.40;99.90;;;;;;5103985;28;19923;-94
2022/10/15 04:17:58;;;;;;;;;;;11.40;99.90;;;;;;5088021;28;20005;-94
2022/10/15 04:20:24;;;;;;;;;;;11.40;99.90;;;;;;5088638;28;19931;-94
2022/10/15 04:22:50;;;;;;;;;;;11.50;99.90;;;;;;5088566;28;19924;-94
2022/10/15 04:25:16;;;;;;;;;;;11.40;99.90;;;;;;5104717;28;19946;-94
2022/10/15 04:27:41;;;;;;;;;;;11.40;99.90;;;;;;5084843;28;19933;-94
2022/10/15 04:30:07;;;;;;;;;;;11.40;99.90;;;;;;5123724;28;19966;-95
2022/10/15 04:32:33;;;;;;;;;;;11.40;99.90;;;;;;5112963;28;19928;-93
2022/10/15 04:34:58;;;;;;;;;;;11.40;99.90;;;;;;5095778;28;19990;-93
2022/10/15 04:37:24;;;;;;;;;;;11.40;99.90;;;;;;5095848;28;19920;-93
2022/10/15 04:39:49;;;;;;;;;;;11.40;99.90;;;;;;5094216;28;19928;-93
2022/10/15 04:42:15;;;;;;;;;;;11.40;99.90;;;;;;5129080;28;19927;-93
2022/10/15 04:44:41;;;;;;;;;;;11.40;99.90;;;;;;5102435;28;19943;-95
2022/10/15 04:47:06;;;;;;;;;;;11.40;99.90;;;;;;5102288;28;19970;-95
2022/10/15 04:49:32;;;;;;;;;;;11.40;99.90;;;;;;5087268;28;20287;-94
2022/10/15 04:51:58;;;;;;;;;;;11.40;99.90;;;;;;5089200;28;19925;-93
2022/10/15 04:54:23;;;;;;;;;;;11.40;99.90;;;;;;5092894;28;19924;-93
2022/10/15 04:56:49;;;;;;;;;;;11.40;99.90;;;;;;5087793;28;19924;-94
2022/10/15 04:59:14;;;;;;;;;;;11.30;99.90;;;;;;5070500;28;19924;-95
2022/10/15 05:01:40;;;;;;;;;;;11.30;99.90;;;;;;5087062;28;19966;-94
2022/10/15 05:04:05;;;;;;;;;;;11.30;99.90;;;;;;5103004;28;19999;-94
2022/10/15 05:06:31;;;;;;;;;;;11.30;99.90;;;;;;5078509;28;19923;-94
2022/10/15 05:08:57;;;;;;;;;;;11.30;99.90;;;;;;5103982;28;19924;-95
2022/10/15 05:11:24;;;;;;;;;;;11.30;99.90;;;;;;5070134;28;19924;-94
2022/10/15 05:13:50;;;;;;;;;;;11.30;99.90;;;;;;5104272;28;20264;-95
2022/10/15 05:16:17;;;;;;;;;;;11.30;99.90;;;;;;5091568;28;19959;-94
2022/10/15 05:18:43;;;;;;;;;;;11.30;99.90;;;;;;5086832;28;19928;-94
2022/10/15 05:21:09;;;;;;;;;;;11.30;99.90;;;;;;5098619;28;19931;-93
2022/10/15 05:23:35;;;;;;;;;;;11.30;99.90;;;;;;5091530;28;19924;-93
2022/10/15 05:26:03;;;;;;;;;;;11.20;99.90;;;;;;5104160;28;19956;-90
2022/10/15 05:28:29;;;;;;;;;;;11.20;99.90;;;;;;5089282;28;19930;-93
2022/10/15 05:30:54;;;;;;;;;;;11.30;99.90;;;;;;5089443;28;19924;-96
2022/10/15 05:33:20;;;;;;;;;;;11.30;99.90;;;;;;5089438;28;19945;-94
2022/10/15 05:35:45;;;;;;;;;;;11.30;99.90;;;;;;5090017;28;19923;-93
2022/10/15 05:38:11;;;;;;;;;;;11.20;99.90;;;;;;5089359;28;19924;-94
2022/10/15 05:40:36;;;;;;;;;;;11.30;99.90;;;;;;5089769;28;19923;-93
2022/10/15 05:43:02;;;;;;;;;;;11.20;99.90;;;;;;5072700;28;19934;-93
2022/10/15 05:45:28;;;;;;;;;;;11.20;99.90;;;;;;5072196;28;19934;-93
2022/10/15 05:47:54;;;;;;;;;;;11.30;99.90;;;;;;5088970;28;20494;-94
2022/10/15 05:50:21;;;;;;;;;;;11.30;99.90;;;;;;5080891;28;19936;-91
2022/10/15 05:52:46;;;;;;;;;;;11.30;99.90;;;;;;5082127;28;19979;-95
2022/10/15 05:55:12;;;;;;;;;;;11.30;99.90;;;;;;5083071;28;19934;-91
2022/10/15 05:57:38;;;;;;;;;;;11.30;99.90;;;;;;5068041;28;19928;-92
2022/10/15 06:00:07;;;;;;;;;;;11.30;99.90;;;;;;5089243;28;19931;-92
2022/10/15 06:02:32;;;;;;;;;;;11.30;99.90;;;;;;5058595;28;19934;-92
2022/10/15 06:04:58;;;;;;;;;;;11.30;99.90;;;;;;5089484;28;19924;-93
2022/10/15 06:07:23;;;;;;;;;;;11.30;99.90;;;;;;5088621;28;19924;-91
2022/10/15 06:09:49;;;;;;;;;;;11.30;99.90;;;;;;5105783;28;19980;-92
2022/10/15 06:12:14;;;;;;;;;;;11.30;99.90;;;;;;5088106;28;19966;-93
2022/10/15 06:14:40;;;;;;;;;;;11.30;99.90;;;;;;5089128;28;19923;-92
2022/10/15 06:17:06;;;;;;;;;;;11.30;99.90;;;;;;5088390;28;19924;-91
2022/10/15 06:19:31;;;;;;;;;;;11.30;99.90;;;;;;5085750;28;19928;-92
2022/10/15 06:21:57;;;;;;;;;;;11.30;99.90;;;;;;5071685;28;19971;-92
2022/10/15 06:24:22;;;;;;;;;;;11.30;99.90;;;;;;5071677;28;19927;-92
2022/10/15 06:26:48;;;;;;;;;;;11.30;99.90;;;;;;5068013;28;19924;-92
2022/10/15 06:29:14;;;;;;;;;;;11.40;99.90;;;;;;5048335;28;19924;-92
2022/10/15 06:31:39;;;;;;;;;;;11.40;99.90;;;;;;5076534;28;20498;-90
2022/10/15 06:34:05;;;;;;;;;;;11.40;99.90;;;;;;5064530;28;19939;-89
2022/10/15 06:36:30;;;;;;;;;;;11.40;99.90;;;;;;5061301;28;19924;-91
2022/10/15 06:38:56;;;;;;;;;;;11.40;99.90;;;;;;5049851;28;19924;-90
2022/10/15 06:41:21;;;;;;;;;;;11.40;99.90;;;;;;5045046;28;19932;-89
2022/10/15 06:43:48;;;;;;;;;;;11.40;99.90;;;;;;5060127;28;19987;-90
2022/10/15 06:46:13;;;;;;;;;;;11.50;99.90;;;;;;5077251;28;19983;-91
2022/10/15 06:48:39;;;;;;;;;;;11.50;99.90;;;;;;5066320;28;19924;-90
2022/10/15 06:51:05;;;;;;;;;;;11.50;99.90;;;;;;5081028;28;20300;-91
2022/10/15 06:53:30;;;;;;;;;;;11.50;99.90;;;;;;5063900;28;19935;-90
2022/10/15 06:56:00;;;;;;;;;;;11.50;99.90;;;;;;5075408;28;19980;-90
2022/10/15 06:58:26;;;;;;;;;;;11.50;99.90;;;;;;5062747;28;20393;-90
2022/10/15 07:00:51;;;;;;;;;;;11.50;99.90;;;;;;5077542;28;19928;-90
2022/10/15 07:03:17;;;;;;;;;;;11.60;99.90;;;;;;5043094;28;19925;-91
2022/10/15 07:05:43;;;;;;;;;;;11.60;99.90;;;;;;5078159;28;19924;-90
2022/10/15 07:08:08;;;;;;;;;;;11.60;99.90;;;;;;5065403;28;20292;-92
2022/10/15 07:10:34;;;;;;;;;;;9.70;99.90;;;;;;5065420;28;20395;-91
2022/10/15 07:13:00;;;;;;;;;;;11.70;99.90;;;;;;5066015;28;19924;-91
2022/10/15 07:15:26;;;;;;;;;;;11.70;99.90;;;;;;5065843;28;19924;-92
2022/10/15 07:17:55;;;;;;;;;;;11.70;99.90;;;;;;5062503;28;19935;-90
2022/10/15 07:20:21;;;;;;;;;;;11.80;99.90;;;;;;5065821;28;19924;-91
2022/10/15 07:22:47;;;;;;;;;;;11.80;99.90;;;;;;5057675;28;19992;-92
2022/10/15 07:25:13;;;;;;;;;;;11.80;99.90;;;;;;5082365;28;19950;-90
2022/10/15 07:27:39;;;;;;;;;;;11.80;99.90;;;;;;5066029;28;19936;-90
2022/10/15 07:30:05;;;;;;;;;;;11.90;99.90;;;;;;5066440;28;19932;-91
2022/10/15 07:32:31;;;;;;;;;;;11.90;99.90;;;;;;5073821;28;19931;-90
2022/10/15 07:34:57;;;;;;;;;;;11.90;99.90;;;;;;5056874;28;19925;-91
2022/10/15 07:37:22;;;;;;;;;;;13.80;99.90;;;;;;5048632;28;19928;-89
2022/10/15 07:39:48;;;;;;;;;;;12.00;99.90;;;;;;5066589;28;19971;-90
2022/10/15 07:42:14;;;;;;;;;;;12.00;99.90;;;;;;5068930;28;19924;-91
2022/10/15 07:44:39;;;;;;;;;;;12.00;99.90;;;;;;5070560;28;19924;-91
2022/10/15 07:47:05;;;;;;;;;;;12.00;99.90;;;;;;5072180;28;19934;-90
2022/10/15 07:49:31;;;;;;;;;;;12.00;99.90;;;;;;5064564;28;19935;-90
2022/10/15 07:51:56;;;;;;;;;;;12.10;99.90;;;;;;5063910;28;19928;-90
2022/10/15 07:54:22;;;;;;;;;;;12.10;99.90;;;;;;5066047;28;19939;-91
2022/10/15 07:56:48;;;;;;;;;;;12.10;99.90;;;;;;5043531;28;20372;-91
2022/10/15 07:59:13;;;;;;;;;;;12.10;99.90;;;;;;5065700;28;19935;-90
2022/10/15 08:01:39;;;;;;;;;;;12.10;99.90;;;;;;5065453;28;20015;-93
2022/10/15 08:04:04;;;;;;;;;;;12.10;99.90;;;;;;5065266;28;19932;-90
2022/10/15 08:06:30;;;;;;;;;;;12.10;99.90;;;;;;5060782;28;19924;-91
2022/10/15 08:08:56;;;;;;;;;;;12.20;99.90;;;;;;5064015;28;19972;-91
2022/10/15 08:11:22;;;;;;;;;;;12.30;99.90;;;;;;5065800;28;20299;-91
2022/10/15 08:13:48;;;;;;;;;;;12.40;99.90;;;;;;5049321;28;19987;-91
2022/10/15 08:16:14;;;;;;;;;;;12.50;99.90;;;;;;5070664;28;19938;-90
2022/10/15 08:18:40;;;;;;;;;;;12.50;99.90;;;;;;5086545;28;19924;-91
2022/10/15 08:21:06;;;;;;;;;;;12.60;99.90;;;;;;5052855;28;19970;-91
2022/10/15 08:23:32;;;;;;;;;;;12.70;99.90;;;;;;5064721;28;19928;-91
2022/10/15 08:25:59;;;;;;;;;;;12.70;99.90;;;;;;5079786;28;20498;-89
2022/10/15 08:28:28;;;;;;;;;;;12.80;99.90;;;;;;5104985;28;19924;-91
2022/10/15 08:30:55;;;;;;;;;;;12.80;99.90;;;;;;5089149;28;19930;-91
2022/10/15 08:33:21;;;;;;;;;;;12.90;99.90;;;;;;5099785;28;19969;-90
2022/10/15 08:35:46;;;;;;;;;;;13.00;99.90;;;;;;5073608;28;19924;-91
2022/10/15 08:38:12;;;;;;;;;;;13.00;99.90;;;;;;5073189;28;19931;-91
2022/10/15 08:40:41;;;;;;;;;;;13.00;99.90;;;;;;5073585;28;20382;-91
2022/10/15 08:43:16;;;;;;;;;;;13.00;99.90;;;;;;5088623;28;20280;-91
2022/10/15 08:45:43;;;;;;;;;;;13.10;99.90;;;;;;5086284;28;19994;-90
2022/10/15 08:48:11;;;;;;;;;;;13.10;99.90;;;;;;5089036;28;19954;-91
2022/10/15 08:50:51;;;;;;;;;;;13.10;99.90;;;;;;5085989;28;19924;-91
2022/10/15 08:53:21;;;;;;;;;;;13.20;99.90;;;;;;5089783;28;20323;-90
2022/10/15 08:55:52;;;;;;;;;;;13.20;99.90;;;;;;5089239;28;19924;-91
2022/10/15 08:58:29;;;;;;;;;;;13.20;99.90;;;;;;5089668;28;19928;-92
2022/10/15 09:01:03;;;;;;;;;;;13.20;99.90;;;;;;5088930;28;19924;-91
2022/10/15 09:03:28;;;;;;;;;;;13.30;99.90;;;;;;5105723;28;19967;-90
2022/10/15 09:06:00;;;;;;;;;;;13.30;99.90;;;;;;5106430;28;19931;-91
2022/10/15 09:08:29;;;;;;;;;;;13.30;99.90;;;;;;5084076;28;19924;-91
2022/10/15 09:11:14;;;;;;;;;;;13.30;99.90;;;;;;5106503;28;19924;-91
2022/10/15 09:13:41;;;;;;;;;;;13.40;99.90;;;;;;5088365;28;19959;-91
2022/10/15 09:16:12;;;;;;;;;;;13.30;99.90;;;;;;5088053;28;19957;-91
2022/10/15 09:18:40;;;;;;;;;;;13.30;99.90;;;;;;5083835;28;19963;-90
2022/10/15 09:21:08;;;;;;;;;;;13.30;99.90;;;;;;5106025;28;19931;-91
2022/10/15 09:23:34;;;;;;;;;;;13.40;99.90;;;;;;5105413;28;19959;-91
2022/10/15 09:26:00;;;;;;;;;;;13.40;99.90;;;;;;5089027;28;19955;-91
2022/10/15 09:28:28;;;;;;;;;;;13.40;99.90;;;;;;5091786;28;19923;-91
2022/10/15 09:30:55;;;;;;;;;;;13.40;99.90;;;;;;5086362;28;19955;-91
2022/10/15 09:33:24;;;;;;;;;;;13.30;99.90;;;;;;5089261;28;19947;-92
2022/10/15 09:36:03;;;;;;;;;;;13.30;99.90;;;;;;5104840;28;19991;-91
2022/10/15 09:38:32;;;;;;;;;;;13.20;99.90;;;;;;5089546;28;19946;-91
2022/10/15 09:41:15;;;;;;;;;;;13.20;99.90;;;;;;5092128;28;19943;-92
2022/10/15 09:43:43;;;;;;;;;;;13.20;99.90;;;;;;5090121;28;19924;-91
2022/10/15 09:46:09;;;;;;;;;;;13.10;99.90;;;;;;5087387;28;19927;-94
2022/10/15 09:48:39;;;;;;;;;;;13.00;99.90;;;;;;5105852;28;19928;-92
2022/10/15 09:51:10;;;;;;;;;;;13.00;99.90;;;;;;5088848;28;19979;-90
2022/10/15 09:53:51;;;;;;;;;;;13.00;99.90;;;;;;5090650;28;19924;-90
2022/10/15 09:56:18;;;;;;;;;;;13.00;99.90;;;;;;5106074;28;20378;-94
2022/10/15 09:58:44;;;;;;;;;;;13.10;99.90;;;;;;5104948;28;20519;-91
2022/10/15 10:01:20;;;;;;;;;;;13.10;99.90;;;;;;5092845;28;19931;-91
2022/10/15 10:03:49;;;;;;;;;;;13.00;99.90;;;;;;5078849;28;19924;-90
2022/10/15 10:06:14;;;;;;;;;;;13.00;99.90;;;;;;5084829;28;19955;-92
2022/10/15 10:08:48;;;;;;;;;;;13.00;99.90;;;;;;5067346;28;19924;-92
2022/10/15 10:11:14;;;;;;;;;;;12.90;99.90;;;;;;5086489;28;19946;-94
2022/10/15 10:13:48;;;;;;;;;;;13.00;99.90;;;;;;5104561;28;19923;-92
2022/10/15 10:16:15;;;;;;;;;;;12.90;99.90;;;;;;5086444;28;20247;-93
2022/10/15 10:18:49;;;;;;;;;;;12.90;99.90;;;;;;5083850;28;19923;-93
2022/10/15 10:21:33;;;;;;;;;;;13.00;99.90;;;;;;5084222;28;19924;-92
2022/10/15 10:24:17;;;;;;;;;;;13.00;99.90;;;;;;5083916;28;19924;-93
2022/10/15 10:26:43;;;;;;;;;;;13.00;99.90;;;;;;5103220;28;20014;-92
2022/10/15 10:29:15;;;;;;;;;;;13.10;99.90;;;;;;5070175;28;19924;-94
2022/10/15 10:31:42;;;;;;;;;;;13.10;99.90;;;;;;5087571;28;19927;-94
2022/10/15 10:34:11;;;;;;;;;;;13.20;99.90;;;;;;5074128;28;19924;-92
2022/10/15 10:36:37;;;;;;;;;;;13.20;99.90;;;;;;5089904;28;19930;-91
2022/10/15 10:39:23;;;;;;;;;;;13.30;99.90;;;;;;5067446;28;20019;-92
2022/10/15 10:41:56;;;;;;;;;;;13.40;99.90;;;;;;5104150;28;19924;-91
2022/10/15 10:44:32;;;;;;;;;;;13.40;99.90;;;;;;5100533;28;20340;-91
2022/10/15 10:47:07;;;;;;;;;;;12.30;99.90;;;;;;5100986;28;19952;-92
2022/10/15 10:49:34;;;;;;;;;;;13.70;99.90;;;;;;5097947;28;19938;-91
2022/10/15 10:51:59;;;;;;;;;;;13.70;99.90;;;;;;5083608;28;19923;-90
2022/10/15 10:54:25;;;;;;;;;;;13.80;99.90;;;;;;5082395;28;19924;-91
2022/10/15 10:56:52;;;;;;;;;;;13.90;99.90;;;;;;5085395;28;19934;-90
2022/10/15 10:59:26;;;;;;;;;;;14.00;99.90;;;;;;5069336;28;19930;-90
2022/10/15 11:01:53;;;;;;;;;;;14.00;99.90;;;;;;5084509;28;19927;-90
2022/10/15 11:04:22;;;;;;;;;;;14.00;99.90;;;;;;5063582;28;19923;-91
2022/10/15 11:06:54;;;;;;;;;;;14.00;99.90;;;;;;5100647;28;20014;-91
2022/10/15 11:09:19;;;;;;;;;;;14.00;99.90;;;;;;5085557;28;19931;-91
2022/10/15 11:11:48;;;;;;;;;;;14.00;99.90;;;;;;5083160;28;19924;-93
2022/10/15 11:14:19;;;;;;;;;;;14.10;99.90;;;;;;5080287;28;19932;-89
2022/10/15 11:16:56;;;;;;;;;;;14.10;99.90;;;;;;5077755;28;19923;-91
2022/10/15 11:19:30;;;;;;;;;;;14.30;99.90;;;;;;5082469;28;19924;-91
2022/10/15 11:22:10;;;;;;;;;;;14.40;99.90;;;;;;5081743;28;19970;-91
2022/10/15 11:24:42;;;;;;;;;;;14.60;99.90;;;;;;5100098;28;19946;-91
2022/10/15 11:27:16;;;;;;;;;;;14.60;99.90;;;;;;5099718;28;20414;-90
2022/10/15 11:29:48;;;;;;;;;;;14.60;99.90;;;;;;5082669;28;19931;-90
2022/10/15 11:32:17;;;;;;;;;;;14.70;99.90;;;;;;5080747;28;19924;-91
2022/10/15 11:35:01;;;;;;;;;;;14.70;99.90;;;;;;5081615;28;19935;-91
2022/10/15 11:37:42;;;;;;;;;;;14.70;99.90;;;;;;5081732;28;19931;-92
2022/10/15 11:40:08;;;;;;;;;;;14.60;99.90;;;;;;5085144;28;19972;-94
2022/10/15 11:42:45;;;;;;;;;;;14.60;99.90;;;;;;5101287;28;19923;-92
2022/10/15 11:45:23;;;;;;;;;;;14.60;99.90;;;;;;5085118;28;19923;-93
2022/10/15 11:47:58;;;;;;;;;;;14.70;99.90;;;;;;5078896;28;19934;-93
2022/10/15 11:50:31;;;;;;;;;;;14.70;99.90;;;;;;5081394;28;19925;-93
2022/10/15 11:52:57;;;;;;;;;;;14.80;99.90;;;;;;5081804;28;19924;-93
2022/10/15 11:55:35;;;;;;;;;;;14.80;99.90;;;;;;5100753;28;19951;-92
2022/10/15 11:58:02;;;;;;;;;;;14.80;99.90;;;;;;5085787;28;20018;-91
2022/10/15 12:00:33;;;;;;;;;;;14.90;99.90;;;;;;5085956;28;19930;-92
2022/10/15 12:03:17;;;;;;;;;;;15.00;99.90;;;;;;5097814;28;19924;-92
2022/10/15 12:05:48;;;;;;;;;;;15.10;99.90;;;;;;5083029;28;19928;-92
2022/10/15 12:08:14;;;;;;;;;;;15.20;99.90;;;;;;5083463;28;19924;-93
2022/10/15 12:10:52;;;;;;;;;;;15.20;99.90;;;;;;5083878;28;20010;-94
2022/10/15 12:13:26;;;;;;;;;;;15.20;99.90;;;;;;5101527;28;19945;-94
2022/10/15 12:16:07;;;;;;;;;;;15.20;99.90;;;;;;5095301;28;19935;-95
2022/10/15 12:18:41;;;;;;;;;;;15.20;99.90;;;;;;5083389;28;19980;-93
2022/10/15 12:21:30;;;;;;;;;;;15.20;99.90;;;;;;5085474;28;19924;-93
2022/10/15 12:23:55;;;;;;;;;;;15.20;99.90;;;;;;5083835;28;19924;-92
2022/10/15 12:26:24;;;;;;;;;;;15.30;99.90;;;;;;5082488;28;20306;-92
2022/10/15 12:28:51;;;;;;;;;;;15.30;99.90;;;;;;5083411;28;19965;-91
2022/10/15 12:31:20;;;;;;;;;;;15.30;99.90;;;;;;5083545;28;19977;-92
2022/10/15 12:33:48;;;;;;;;;;;15.30;99.90;;;;;;5085795;28;19931;-92
2022/10/15 12:36:17;;;;;;;;;;;15.30;99.90;;;;;;5083964;28;19935;-94
2022/10/15 12:38:53;;;;;;;;;;;15.30;99.90;;;;;;5082413;28;19928;-94
2022/10/15 12:41:19;;;;;;;;;;;15.30;99.90;;;;;;5085842;28;19931;-93
2022/10/15 12:43:52;;;;;;;;;;;15.30;99.90;;;;;;5069303;28;19924;-92
2022/10/15 12:46:18;;;;;;;;;;;15.30;99.90;;;;;;5081385;28;20010;-93
2022/10/15 12:48:45;;;;;;;;;;;15.30;99.90;;;;;;5085970;28;19943;-94
2022/10/15 12:51:23;;;;;;;;;;;15.20;99.90;;;;;;5097568;28;19923;-93
2022/10/15 12:53:54;;;;;;;;;;;15.20;99.90;;;;;;5101555;28;19923;-93
2022/10/15 12:56:24;;;;;;;;;;;15.20;99.90;;;;;;5085646;28;20894;-92
2022/10/15 12:58:50;;;;;;;;;;;15.10;99.90;;;;;;5102868;28;19923;-93
2022/10/15 13:01:19;;;;;;;;;;;15.10;99.90;;;;;;5103014;28;20395;-93
2022/10/15 13:03:51;;;;;;;;;;;15.00;99.90;;;;;;5086814;28;19924;-92
2022/10/15 13:06:22;;;;;;;;;;;15.00;99.90;;;;;;5101505;28;19931;-95
2022/10/15 13:08:50;;;;;;;;;;;15.00;99.90;;;;;;5100401;28;19924;-93
2022/10/15 13:11:29;;;;;;;;;;;15.00;99.90;;;;;;5104772;28;19924;-94
2022/10/15 13:13:58;;;;;;;;;;;14.90;99.90;;;;;;5088365;28;19924;-93
2022/10/15 13:16:26;;;;;;;;;;;14.90;99.90;;;;;;5101450;28;19963;-94
2022/10/15 13:18:54;;;;;;;;;;;14.90;99.90;;;;;;5065597;28;19954;-94
2022/10/15 13:21:19;;;;;;;;;;;14.90;99.90;;;;;;5100866;28;19987;-94
2022/10/15 13:23:46;;;;;;;;;;;14.90;99.90;;;;;;5082769;28;19959;-93
2022/10/15 13:26:20;;;;;;;;;;;14.90;99.90;;;;;;5087020;28;20046;-94
2022/10/15 13:28:47;;;;;;;;;;;15.00;99.90;;;;;;5101570;28;19970;-93
2022/10/15 13:31:15;;;;;;;;;;;15.00;99.90;;;;;;5103217;28;19928;-94
2022/10/15 13:33:43;;;;;;;;;;;15.10;99.90;;;;;;5086485;28;19924;-94
2022/10/15 13:36:14;;;;;;;;;;;15.10;99.90;;;;;;5104258;28;19935;-94
2022/10/15 13:38:40;;;;;;;;;;;15.00;99.90;;;;;;5088474;28;19959;-94
2022/10/15 13:41:06;;;;;;;;;;;15.00;99.90;;;;;;5106784;28;19935;-94
2022/10/15 13:43:32;;;;;;;;;;;15.00;99.90;;;;;;5104858;28;19939;-93
2022/10/15 13:45:58;;;;;;;;;;;15.00;99.90;;;;;;5086052;28;19923;-92
2022/10/15 13:48:25;;;;;;;;;;;15.00;99.90;;;;;;5080566;28;19924;-94
2022/10/15 13:50:51;;;;;;;;;;;14.90;99.90;;;;;;5087977;28;20010;-94
2022/10/15 13:53:17;;;;;;;;;;;14.90;99.90;;;;;;5087994;28;19938;-93
2022/10/15 13:55:44;;;;;;;;;;;14.90;99.90;;;;;;5106153;28;19924;-94
2022/10/15 13:58:19;;;;;;;;;;;14.80;99.90;;;;;;5094280;28;19928;-93
2022/10/15 14:01:03;;;;;;;;;;;14.80;99.90;;;;;;5105931;28;19931;-94
2022/10/15 14:03:30;;;;;;;;;;;14.70;99.90;;;;;;5111224;28;19928;-94
2022/10/15 14:05:57;;;;;;;;;;;14.70;99.90;;;;;;5115411;28;19938;-94
2022/10/15 14:08:33;;;;;;;;;;;14.70;99.90;;;;;;5114471;28;20044;-94
2022/10/15 14:10:58;;;;;;;;;;;14.70;99.90;;;;;;5110283;28;19928;-95
2022/10/15 14:13:25;;;;;;;;;;;14.70;99.90;;;;;;5093958;28;19979;-95
2022/10/15 14:15:52;;;;;;;;;;;14.70;99.90;;;;;;5095114;28;19975;-96
2022/10/15 14:18:25;;;;;;;;;;;14.70;99.90;;;;;;5096142;28;19931;-95
2022/10/15 14:20:52;;;;;;;;;;;14.70;99.90;;;;;;5112606;28;19931;-96
2022/10/15 14:23:25;;;;;;;;;;;14.70;99.90;;;;;;5093554;28;19930;-95